createdAt,value
2022-09-20T00:01:51.109Z,65.22
2022-09-20T00:04:22.909Z,65.30
2022-09-20T00:06:56.050Z,65.22
2022-09-20T00:09:24.730Z,65.30
2022-09-20T00:11:53.400Z,65.49
2022-09-20T00:14:22.080Z,65.41
2022-09-20T00:16:50.781Z,65.54
2022-09-20T00:19:21.694Z,65.60
2022-09-20T00:21:51.838Z,65.68
2022-09-20T00:24:24.468Z,65.31
2022-09-20T00:26:53.348Z,65.79
2022-09-20T00:29:22.159Z,65.60
2022-09-20T00:31:52.697Z,65.83
2022-09-20T00:34:38.539Z,65.82
2022-09-20T00:37:07.229Z,65.70
2022-09-20T00:39:39.119Z,65.85
2022-09-20T00:42:08.509Z,65.95
2022-09-20T00:44:52.588Z,65.91
2022-09-20T00:47:28.184Z,65.73
2022-09-20T00:50:01.718Z,66.00
2022-09-20T00:52:31.820Z,65.84
2022-09-20T00:55:02.809Z,65.89
2022-09-20T00:57:36.598Z,65.93
2022-09-20T01:00:08.909Z,65.83
2022-09-20T01:02:41.720Z,65.94
2022-09-20T01:05:14.008Z,65.95
2022-09-20T01:07:49.162Z,65.89
2022-09-20T01:10:19.449Z,65.88
2022-09-20T01:12:49.768Z,65.92
2022-09-20T01:15:19.349Z,65.88
2022-09-20T01:17:52.263Z,66.11
2022-09-20T01:20:24.719Z,66.11
2022-09-20T01:23:15.218Z,65.99
2022-09-20T01:26:17.350Z,65.88
2022-09-20T01:28:49.438Z,65.98
2022-09-20T01:31:22.028Z,66.01
2022-09-20T01:33:55.809Z,66.16
2022-09-20T01:36:28.422Z,66.06
2022-09-20T01:39:07.687Z,66.07
2022-09-20T01:41:40.908Z,66.16
2022-09-20T01:44:19.049Z,66.16
2022-09-20T01:46:54.749Z,66.05
2022-09-20T01:49:36.999Z,66.06
2022-09-20T01:52:44.860Z,66.07
2022-09-20T01:55:39.678Z,66.05
2022-09-20T01:58:26.525Z,66.07
2022-09-20T02:01:22.809Z,66.12
2022-09-20T02:04:28.150Z,66.02
2022-09-20T02:07:18.358Z,66.09
2022-09-20T02:10:15.790Z,66.13
2022-09-20T02:12:57.118Z,66.16
2022-09-20T02:15:48.779Z,66.16
2022-09-20T02:18:41.841Z,66.09
2022-09-20T02:21:24.410Z,66.05
2022-09-20T02:24:02.959Z,66.18
2022-09-20T02:26:43.869Z,66.21
2022-09-20T02:29:29.729Z,66.29
2022-09-20T02:32:15.059Z,66.08
2022-09-20T02:35:21.409Z,66.13
2022-09-20T02:38:09.859Z,66.26
2022-09-20T02:41:04.399Z,66.07
2022-09-20T02:43:48.689Z,66.42
2022-09-20T02:46:25.978Z,66.31
2022-09-20T02:49:04.400Z,66.28
2022-09-20T02:51:41.499Z,66.26
2022-09-20T02:54:22.868Z,66.10
2022-09-20T02:57:03.517Z,66.16
2022-09-20T02:59:42.048Z,66.03
2022-09-20T03:02:21.581Z,66.27
2022-09-20T03:05:06.518Z,66.17
2022-09-20T03:07:56.363Z,66.16
2022-09-20T03:10:34.534Z,65.78
2022-09-20T03:13:19.328Z,65.91
2022-09-20T03:15:59.450Z,66.20
2022-09-20T03:18:39.989Z,66.19
2022-09-20T03:21:22.858Z,66.15
2022-09-20T03:24:06.202Z,66.09
2022-09-20T03:26:51.260Z,66.08
2022-09-20T03:29:33.289Z,66.27
2022-09-20T03:32:15.307Z,66.21
2022-09-20T03:34:55.670Z,66.13
2022-09-20T03:37:45.409Z,66.07
2022-09-20T03:40:51.101Z,66.13
2022-09-20T03:43:31.279Z,66.19
2022-09-20T03:46:22.808Z,65.96
2022-09-20T03:49:42.208Z,66.07
2022-09-20T03:52:28.118Z,66.08
2022-09-20T03:55:20.270Z,66.20
2022-09-20T03:58:01.059Z,66.02
2022-09-20T04:00:49.191Z,66.26
2022-09-20T04:03:33.281Z,66.26
2022-09-20T04:06:15.108Z,66.12
2022-09-20T04:09:12.988Z,66.21
2022-09-20T04:11:52.509Z,66.16
2022-09-20T04:14:39.264Z,66.25
2022-09-20T04:17:29.418Z,66.27
2022-09-20T04:20:07.369Z,66.49
2022-09-20T04:22:37.290Z,66.21
2022-09-20T04:25:18.288Z,66.37
2022-09-20T04:27:53.689Z,66.25
2022-09-20T04:30:28.110Z,66.28
2022-09-20T04:33:02.612Z,66.17
2022-09-20T04:36:12.839Z,66.23
2022-09-20T04:38:45.648Z,66.22
2022-09-20T04:41:34.290Z,66.33
2022-09-20T04:44:23.912Z,66.39
2022-09-20T04:47:45.209Z,66.39
2022-09-20T04:50:57.858Z,66.26
2022-09-20T04:53:52.949Z,66.29
2022-09-20T04:56:35.109Z,66.24
2022-09-20T04:59:10.529Z,66.34
2022-09-20T05:02:23.233Z,66.16
2022-09-20T05:05:28.418Z,66.39
2022-09-20T05:08:42.889Z,66.27
2022-09-20T05:11:52.989Z,66.37
2022-09-20T05:14:41.210Z,66.30
2022-09-20T05:17:23.728Z,66.42
2022-09-20T05:20:17.248Z,66.53
2022-09-20T05:23:14.608Z,66.30
2022-09-20T05:26:12.551Z,66.13
2022-09-20T05:28:55.108Z,66.50
2022-09-20T05:31:35.853Z,66.41
2022-09-20T05:34:14.588Z,66.28
2022-09-20T05:36:57.948Z,66.42
2022-09-20T05:39:36.685Z,66.39
2022-09-20T05:42:16.470Z,66.41
2022-09-20T05:44:59.479Z,66.34
2022-09-20T05:47:40.368Z,66.51
2022-09-20T05:50:28.590Z,66.40
2022-09-20T05:53:05.038Z,66.50
2022-09-20T05:55:54.443Z,66.67
2022-09-20T05:58:45.268Z,66.53
2022-09-20T06:01:22.172Z,66.63
2022-09-20T06:03:57.088Z,66.52
2022-09-20T06:06:32.926Z,66.56
2022-09-20T06:09:15.929Z,66.56
2022-09-20T06:12:05.628Z,66.46
2022-09-20T06:14:45.358Z,66.56
2022-09-20T06:17:23.839Z,66.62
2022-09-20T06:20:02.508Z,66.49
2022-09-20T06:22:35.639Z,66.51
2022-09-20T06:25:14.129Z,66.55
2022-09-20T06:27:49.749Z,66.43
2022-09-20T06:30:31.569Z,66.59
2022-09-20T06:33:02.114Z,66.71
2022-09-20T06:35:38.716Z,66.50
2022-09-20T06:38:43.324Z,66.52
2022-09-20T06:41:31.227Z,66.81
2022-09-20T06:44:01.069Z,67.02
2022-09-20T06:46:34.570Z,66.78
2022-09-20T06:49:03.771Z,66.96
2022-09-20T06:51:37.118Z,66.89
2022-09-20T06:54:11.699Z,67.00
2022-09-20T06:56:42.549Z,66.94
2022-09-20T06:59:15.720Z,66.82
2022-09-20T07:01:46.016Z,66.62
2022-09-20T07:04:15.118Z,66.89
2022-09-20T07:06:43.729Z,66.91
2022-09-20T07:09:13.378Z,67.05
2022-09-20T07:11:45.708Z,67.02
2022-09-20T07:14:14.458Z,67.05
2022-09-20T07:16:45.306Z,67.05
2022-09-20T07:19:15.369Z,67.02
2022-09-20T07:21:46.179Z,66.94
2022-09-20T07:24:15.558Z,66.90
2022-09-20T07:26:57.434Z,66.92
2022-09-20T07:29:28.753Z,67.08
2022-09-20T07:31:59.365Z,66.99
2022-09-20T07:34:28.259Z,66.94
2022-09-20T07:37:00.008Z,66.87
2022-09-20T07:39:28.961Z,66.77
2022-09-20T07:41:57.837Z,66.66
2022-09-20T07:44:28.780Z,66.80
2022-09-20T07:47:00.755Z,66.95
2022-09-20T07:49:31.492Z,66.65
2022-09-20T07:52:00.430Z,66.56
2022-09-20T07:54:29.259Z,66.72
2022-09-20T07:56:59.228Z,66.76
2022-09-20T07:59:27.978Z,66.71
2022-09-20T08:01:57.950Z,66.80
2022-09-20T08:04:30.954Z,66.72
2022-09-20T08:07:02.038Z,66.63
2022-09-20T08:09:32.089Z,66.70
2022-09-20T08:14:05.260Z,66.61
2022-09-20T08:14:56.170Z,66.68
2022-09-20T08:17:25.009Z,66.56
2022-09-20T08:20:02.509Z,66.52
2022-09-20T08:22:35.380Z,66.43
2022-09-20T08:25:04.068Z,66.53
2022-09-20T08:27:32.699Z,66.38
2022-09-20T08:30:01.488Z,66.43
2022-09-20T08:32:30.201Z,66.37
2022-09-20T08:35:00.878Z,66.28
2022-09-20T08:37:29.609Z,66.17
2022-09-20T08:39:59.283Z,66.37
2022-09-20T08:42:34.938Z,66.11
2022-09-20T08:45:21.852Z,66.05
2022-09-20T08:47:58.524Z,65.90
2022-09-20T08:50:33.310Z,65.97
2022-09-20T08:53:05.341Z,65.76
2022-09-20T08:55:40.598Z,65.80
2022-09-20T08:58:13.829Z,65.69
2022-09-20T09:00:45.429Z,65.80
2022-09-20T09:03:17.193Z,65.93
2022-09-20T09:05:52.219Z,65.84
2022-09-20T09:08:24.938Z,65.90
2022-09-20T09:10:57.348Z,65.88
2022-09-20T09:13:32.309Z,65.91
2022-09-20T09:16:06.844Z,65.84
2022-09-20T09:18:41.848Z,65.94
2022-09-20T09:21:20.232Z,65.64
2022-09-20T09:23:54.989Z,65.81
2022-09-20T09:26:25.249Z,65.75
2022-09-20T09:29:20.918Z,65.76
2022-09-20T09:31:55.398Z,65.73
2022-09-20T09:34:29.112Z,65.54
2022-09-20T09:37:04.320Z,65.73
2022-09-20T09:39:35.970Z,65.45
2022-09-20T09:42:24.548Z,65.56
2022-09-20T09:44:53.219Z,65.52
2022-09-20T09:47:29.154Z,65.38
2022-09-20T09:50:05.033Z,65.43
2022-09-20T09:52:39.159Z,65.35
2022-09-20T09:55:08.719Z,65.24
2022-09-20T09:57:52.310Z,65.28
2022-09-20T10:00:22.922Z,64.95
2022-09-20T10:03:27.991Z,65.15
2022-09-20T10:06:10.458Z,65.14
2022-09-20T10:08:49.809Z,64.73
2022-09-20T10:11:30.830Z,65.10
2022-09-20T10:14:15.138Z,65.13
2022-09-20T10:16:59.239Z,65.27
2022-09-20T10:19:45.449Z,65.21
2022-09-20T10:22:19.849Z,65.20
2022-09-20T10:24:58.280Z,65.08
2022-09-20T10:27:45.170Z,65.22
2022-09-20T10:30:18.709Z,65.00
2022-09-20T10:33:00.128Z,65.17
2022-09-20T10:35:35.458Z,65.00
2022-09-20T10:38:15.738Z,64.85
2022-09-20T10:41:18.459Z,64.93
2022-09-20T10:44:05.886Z,64.90
2022-09-20T10:46:49.738Z,64.70
2022-09-20T10:49:36.941Z,64.81
2022-09-20T10:52:31.968Z,64.89
2022-09-20T10:55:28.608Z,64.65
2022-09-20T10:58:14.730Z,64.87
2022-09-20T11:00:49.047Z,64.79
2022-09-20T11:03:36.109Z,64.63
2022-09-20T11:06:17.950Z,64.72
2022-09-20T11:08:51.995Z,64.70
2022-09-20T11:11:24.868Z,64.77
2022-09-20T11:14:01.938Z,64.64
2022-09-20T11:16:42.108Z,64.91
2022-09-20T11:19:20.258Z,64.82
2022-09-20T11:21:59.099Z,64.95
2022-09-20T11:24:34.918Z,64.99
2022-09-20T11:27:16.020Z,64.71
2022-09-20T11:29:52.408Z,64.65
2022-09-20T11:32:27.828Z,64.86
2022-09-20T11:34:59.039Z,64.93
2022-09-20T11:37:37.169Z,64.98
2022-09-20T11:40:21.212Z,64.95
2022-09-20T11:42:51.539Z,64.63
2022-09-20T11:45:27.559Z,64.62
2022-09-20T11:48:03.369Z,64.82
2022-09-20T11:50:53.358Z,64.58
2022-09-20T11:53:40.731Z,64.51
2022-09-20T11:56:21.033Z,64.67
2022-09-20T11:58:51.753Z,64.77
2022-09-20T12:01:28.926Z,64.62
2022-09-20T12:04:21.023Z,64.76
2022-09-20T12:06:58.679Z,64.91
2022-09-20T12:09:32.638Z,64.98
2022-09-20T12:12:16.098Z,64.74
2022-09-20T12:15:00.361Z,64.72
2022-09-20T12:18:21.129Z,64.65
2022-09-20T12:21:16.707Z,64.61
2022-09-20T12:24:04.019Z,64.57
2022-09-20T12:26:58.729Z,64.60
2022-09-20T12:29:59.360Z,64.63
2022-09-20T12:32:56.638Z,64.58
2022-09-20T12:35:58.640Z,64.55
2022-09-20T12:38:38.729Z,64.18
2022-09-20T12:41:11.119Z,64.22
2022-09-20T12:43:49.869Z,64.27
2022-09-20T12:46:25.932Z,64.33
2022-09-20T12:49:40.591Z,64.17
2022-09-20T12:52:43.919Z,64.28
2022-09-20T12:55:27.859Z,63.89
2022-09-20T12:57:58.768Z,64.04
2022-09-20T13:00:38.298Z,64.25
2022-09-20T13:03:25.119Z,64.03
2022-09-20T13:06:26.279Z,64.10
2022-09-20T13:09:04.550Z,64.37
2022-09-20T13:11:40.150Z,64.15
2022-09-20T13:14:14.179Z,64.06
2022-09-20T13:16:55.529Z,64.22
2022-09-20T13:19:30.023Z,64.19
2022-09-20T13:22:03.069Z,64.26
2022-09-20T13:24:35.969Z,64.20
2022-09-20T13:27:11.070Z,64.00
2022-09-20T13:29:43.980Z,64.12
2022-09-20T13:32:26.588Z,63.87
2022-09-20T13:35:08.708Z,64.19
2022-09-20T13:37:44.058Z,64.13
2022-09-20T13:40:22.350Z,64.27
2022-09-20T13:43:19.666Z,63.89
2022-09-20T13:45:48.486Z,64.13
2022-09-20T13:48:18.590Z,63.90
2022-09-20T13:50:53.623Z,64.00
2022-09-20T13:53:40.510Z,63.83
2022-09-20T13:56:16.388Z,63.73
2022-09-20T13:58:46.698Z,63.92
2022-09-20T14:01:29.528Z,63.73
2022-09-20T14:04:04.759Z,63.56
2022-09-20T14:06:34.108Z,63.62
2022-09-20T14:09:11.502Z,63.72
2022-09-20T14:11:41.730Z,63.30
2022-09-20T14:14:21.332Z,63.18
2022-09-20T14:16:53.708Z,63.08
2022-09-20T14:19:28.919Z,62.62
2022-09-20T14:22:00.382Z,62.52
2022-09-20T14:24:35.884Z,62.69
2022-09-20T14:27:20.250Z,62.16
2022-09-20T14:29:51.509Z,62.11
2022-09-20T14:32:31.329Z,62.09
2022-09-20T14:35:07.051Z,62.30
2022-09-20T14:37:36.801Z,61.96
2022-09-20T14:40:18.136Z,61.77
2022-09-20T14:42:49.158Z,61.90
2022-09-20T14:45:27.749Z,61.92
2022-09-20T14:48:00.339Z,61.77
2022-09-20T14:50:31.529Z,60.79
2022-09-20T14:53:30.259Z,59.90
2022-09-20T14:56:11.658Z,58.86
2022-09-20T14:59:09.531Z,57.82
2022-09-20T15:01:42.968Z,57.80
2022-09-20T15:04:21.429Z,58.19
2022-09-20T15:06:50.688Z,58.51
2022-09-20T15:09:21.339Z,58.67
2022-09-20T15:12:01.239Z,58.25
2022-09-20T15:14:37.181Z,58.47
2022-09-20T15:17:08.789Z,58.31
2022-09-20T15:19:39.119Z,58.91
2022-09-20T15:22:08.849Z,59.73
2022-09-20T15:24:37.619Z,59.16
2022-09-20T15:27:06.600Z,58.11
2022-09-20T15:29:35.289Z,58.07
2022-09-20T15:32:06.109Z,57.87
2022-09-20T15:34:38.229Z,57.78
2022-09-20T15:37:08.058Z,58.14
2022-09-20T15:39:38.398Z,58.63
2022-09-20T15:42:07.563Z,58.60
2022-09-20T15:44:36.458Z,58.86
2022-09-20T15:47:05.449Z,58.78
2022-09-20T15:49:35.668Z,58.78
2022-09-20T15:52:05.562Z,58.48
2022-09-20T15:54:34.259Z,58.13
2022-09-20T15:57:05.258Z,58.24
2022-09-20T15:59:34.798Z,58.69
2022-09-20T16:02:03.758Z,58.32
2022-09-20T16:04:33.899Z,58.25
2022-09-20T16:07:06.521Z,58.50
2022-09-20T16:09:36.413Z,58.26
2022-09-20T16:12:05.448Z,58.76
2022-09-20T16:14:38.558Z,58.42
2022-09-20T16:17:07.540Z,58.27
2022-09-20T16:19:38.298Z,58.63
2022-09-20T16:22:19.681Z,58.46
2022-09-20T16:24:49.708Z,59.09
2022-09-20T16:27:18.638Z,58.82
2022-09-20T16:29:47.789Z,59.25
2022-09-20T16:32:16.611Z,59.45
2022-09-20T16:34:45.858Z,59.63
2022-09-20T16:37:26.806Z,59.76
2022-09-20T16:39:57.219Z,59.85
2022-09-20T16:42:27.018Z,59.97
2022-09-20T16:44:55.818Z,60.17
2022-09-20T16:47:27.470Z,59.65
2022-09-20T16:49:56.734Z,60.01
2022-09-20T16:52:30.699Z,60.27
2022-09-20T16:54:59.640Z,60.18
2022-09-20T16:57:29.173Z,60.35
2022-09-20T17:00:00.658Z,60.28
2022-09-20T17:02:31.908Z,60.42
2022-09-20T17:05:00.853Z,59.60
2022-09-20T17:07:33.959Z,56.66
2022-09-20T17:10:02.979Z,54.71
2022-09-20T17:12:34.249Z,53.65
2022-09-20T17:15:07.159Z,53.61
2022-09-20T17:17:36.160Z,52.86
2022-09-20T17:20:06.298Z,54.14
2022-09-20T17:22:36.471Z,56.72
2022-09-20T17:25:05.428Z,58.24
2022-09-20T17:27:34.260Z,59.13
2022-09-20T17:30:03.038Z,59.51
2022-09-20T17:32:37.423Z,60.01
2022-09-20T17:35:07.289Z,60.15
2022-09-20T17:37:39.189Z,60.50
2022-09-20T17:40:11.703Z,60.59
2022-09-20T17:42:40.938Z,60.90
2022-09-20T17:45:15.294Z,60.42
2022-09-20T17:47:47.101Z,60.74
2022-09-20T17:50:15.870Z,60.92
2022-09-20T17:52:47.339Z,61.00
2022-09-20T17:55:17.144Z,60.83
2022-09-20T17:57:47.959Z,60.67
2022-09-20T18:00:16.868Z,60.89
2022-09-20T18:02:47.969Z,60.54
2022-09-20T18:05:16.889Z,60.62
2022-09-20T18:07:49.269Z,60.47
2022-09-20T18:10:17.948Z,60.79
2022-09-20T18:12:48.398Z,60.83
2022-09-20T18:15:17.669Z,60.47
2022-09-20T18:17:46.409Z,60.86
2022-09-20T18:20:15.248Z,60.56
2022-09-20T18:22:44.201Z,60.68
2022-09-20T18:25:14.489Z,60.51
2022-09-20T18:27:43.590Z,60.50
2022-09-20T18:30:12.990Z,60.51
2022-09-20T18:32:44.689Z,60.55
2022-09-20T18:35:16.869Z,60.68
2022-09-20T18:37:46.836Z,60.90
2022-09-20T18:40:17.131Z,60.56
2022-09-20T18:42:45.829Z,60.82
2022-09-20T18:45:17.848Z,60.78
2022-09-20T18:47:49.551Z,60.65
2022-09-20T18:50:18.329Z,60.52
2022-09-20T18:52:47.759Z,60.53
2022-09-20T18:55:18.460Z,60.88
2022-09-20T18:57:48.629Z,60.77
2022-09-20T19:00:18.079Z,60.72
2022-09-20T19:03:09.464Z,61.03
2022-09-20T19:05:45.179Z,61.06
2022-09-20T19:08:27.359Z,61.14
2022-09-20T19:11:02.474Z,61.60
2022-09-20T19:13:39.918Z,61.64
2022-09-20T19:16:21.006Z,62.06
2022-09-20T19:19:11.499Z,61.94
2022-09-20T19:21:47.359Z,62.35
2022-09-20T19:24:26.568Z,62.09
2022-09-20T19:26:57.128Z,62.55
2022-09-20T19:29:27.649Z,62.21
2022-09-20T19:31:57.828Z,62.15
2022-09-20T19:34:32.151Z,62.21
2022-09-20T19:37:18.892Z,62.40
2022-09-20T19:40:09.211Z,62.45
2022-09-20T19:42:53.474Z,62.43
2022-09-20T19:45:31.624Z,62.13
2022-09-20T19:48:13.032Z,62.59
2022-09-20T19:50:46.605Z,62.10
2022-09-20T19:53:17.231Z,62.32
2022-09-20T19:55:52.194Z,62.08
2022-09-20T19:58:24.499Z,62.16
2022-09-20T20:00:54.060Z,62.38
2022-09-20T20:03:26.440Z,62.10
2022-09-20T20:06:04.542Z,62.25
2022-09-20T20:08:45.389Z,62.53
2022-09-20T20:11:34.400Z,62.10
2022-09-20T20:14:15.619Z,62.47
2022-09-20T20:16:57.309Z,62.38
2022-09-20T20:19:47.781Z,62.52
2022-09-20T20:22:30.039Z,62.99
2022-09-20T20:24:59.279Z,63.11
2022-09-20T20:27:29.529Z,63.00
2022-09-20T20:30:02.439Z,63.15
2022-09-20T20:32:31.074Z,62.91
2022-09-20T20:35:01.900Z,62.88
2022-09-20T20:37:32.440Z,62.67
2022-09-20T20:40:04.573Z,62.74
2022-09-20T20:42:35.729Z,63.13
2022-09-20T20:45:07.604Z,62.98
2022-09-20T20:47:38.934Z,63.00
2022-09-20T20:50:08.349Z,62.93
2022-09-20T20:52:37.138Z,62.92
2022-09-20T20:55:08.350Z,62.98
2022-09-20T20:57:38.289Z,62.75
2022-09-20T21:00:10.145Z,62.63
2022-09-20T21:03:00.126Z,63.03
2022-09-20T21:05:30.914Z,62.93
2022-09-20T21:07:59.725Z,63.43
2022-09-20T21:10:29.565Z,63.20
2022-09-20T21:12:58.154Z,63.21
2022-09-20T21:15:28.254Z,63.26
2022-09-20T21:17:56.905Z,63.35
2022-09-20T21:20:26.041Z,63.08
2022-09-20T21:22:57.539Z,63.20
2022-09-20T21:25:27.964Z,63.36
2022-09-20T21:27:59.005Z,63.06
2022-09-20T21:30:28.944Z,63.29
2022-09-20T21:32:59.914Z,63.40
2022-09-20T21:35:29.599Z,63.28
2022-09-20T21:38:00.143Z,63.21
2022-09-20T21:40:29.004Z,63.36
2022-09-20T21:42:57.590Z,63.24
2022-09-20T21:45:27.564Z,63.10
2022-09-20T21:47:57.689Z,63.52
2022-09-20T21:50:27.800Z,63.33
2022-09-20T21:52:56.404Z,63.35
2022-09-20T21:55:24.989Z,63.37
2022-09-20T21:57:53.749Z,63.40
2022-09-20T22:00:22.499Z,63.53
2022-09-20T22:02:51.948Z,63.30
2022-09-20T22:05:22.824Z,63.60
2022-09-20T22:07:52.289Z,63.45
2022-09-20T22:10:22.095Z,63.60
2022-09-20T22:12:51.849Z,63.58
2022-09-20T22:15:21.081Z,63.60
2022-09-20T22:17:50.749Z,63.67
2022-09-20T22:20:19.879Z,63.62
2022-09-20T22:22:50.158Z,63.65
2022-09-20T22:25:19.059Z,63.75
2022-09-20T22:27:49.884Z,63.48
2022-09-20T22:30:18.784Z,63.66
2022-09-20T22:32:52.974Z,63.73
2022-09-20T22:36:03.303Z,63.56
2022-09-20T22:38:47.654Z,63.57
2022-09-20T22:41:32.558Z,63.80
2022-09-20T22:44:17.904Z,63.89
2022-09-20T22:46:56.988Z,63.81
2022-09-20T22:49:26.057Z,63.68
2022-09-20T22:51:54.949Z,63.96
2022-09-20T22:54:25.064Z,63.75
2022-09-20T22:56:53.654Z,63.79
2022-09-20T22:59:24.958Z,63.78
2022-09-20T23:01:53.610Z,64.07
2022-09-20T23:04:22.639Z,63.83
2022-09-20T23:06:55.300Z,63.82
2022-09-20T23:09:28.421Z,63.96
2022-09-20T23:11:57.270Z,64.00
2022-09-20T23:14:25.939Z,63.91
2022-09-20T23:16:54.620Z,63.98
2022-09-20T23:19:23.380Z,63.98
2022-09-20T23:21:52.298Z,63.92
2022-09-20T23:24:24.909Z,63.94
2022-09-20T23:26:53.488Z,63.98
2022-09-20T23:29:22.760Z,64.05
2022-09-20T23:31:51.709Z,63.85
2022-09-20T23:34:20.278Z,63.94
2022-09-20T23:36:50.648Z,63.92
2022-09-20T23:39:19.369Z,64.08
2022-09-20T23:41:51.234Z,63.99
2022-09-20T23:44:20.310Z,64.09
2022-09-20T23:46:48.941Z,64.03
2022-09-20T23:49:17.648Z,64.02
2022-09-20T23:51:46.248Z,63.87
2022-09-20T23:54:14.868Z,63.85
2022-09-20T23:56:43.428Z,63.91
2022-09-20T23:59:13.518Z,63.86
